createdAt,value
2022-09-12T00:00:23.120Z,75.02
2022-09-12T00:02:55.939Z,72.98
2022-09-12T00:05:22.432Z,73.81
2022-09-12T00:07:49.435Z,74.96
2022-09-12T00:10:16.683Z,74.29
2022-09-12T00:12:43.248Z,73.44
2022-09-12T00:15:10.789Z,73.30
2022-09-12T00:17:38.678Z,73.32
2022-09-12T00:20:08.025Z,72.47
2022-09-12T00:22:35.173Z,71.94
2022-09-12T00:25:02.229Z,72.56
2022-09-12T00:27:28.781Z,73.00
2022-09-12T00:29:55.278Z,73.30
2022-09-12T00:32:24.288Z,74.19
2022-09-12T00:34:50.665Z,73.87
2022-09-12T00:37:17.069Z,73.81
2022-09-12T00:39:43.583Z,73.85
2022-09-12T00:42:11.862Z,75.30
2022-09-12T00:44:38.155Z,75.47
2022-09-12T00:47:11.518Z,74.68
2022-09-12T00:49:47.426Z,74.55
2022-09-12T00:52:18.754Z,72.30
2022-09-12T00:54:51.472Z,73.29
2022-09-12T00:57:20.493Z,75.37
2022-09-12T00:59:54.042Z,75.43
2022-09-12T01:02:21.653Z,75.32
2022-09-12T01:04:48.971Z,75.11
2022-09-12T01:07:15.858Z,75.36
2022-09-12T01:09:44.117Z,75.77
2022-09-12T01:12:11.556Z,75.25
2022-09-12T01:14:38.822Z,72.96
2022-09-12T01:17:05.294Z,74.44
2022-09-12T01:20:05.328Z,75.66
2022-09-12T01:22:34.614Z,74.64
2022-09-12T01:25:09.749Z,76.08
2022-09-12T01:27:36.088Z,75.31
2022-09-12T01:30:30.032Z,75.31
2022-09-12T01:33:21.256Z,75.69
2022-09-12T01:36:05.948Z,75.38
2022-09-12T01:38:52.543Z,75.90
2022-09-12T01:41:25.069Z,76.27
2022-09-12T01:44:22.762Z,76.26
2022-09-12T01:47:02.461Z,75.89
2022-09-12T01:49:57.868Z,76.07
2022-09-12T01:52:37.698Z,76.08
2022-09-12T01:55:28.195Z,76.10
2022-09-12T01:58:03.051Z,76.60
2022-09-12T02:00:32.159Z,77.39
2022-09-12T02:03:10.495Z,76.58
2022-09-12T02:05:42.917Z,76.88
2022-09-12T02:08:18.844Z,76.46
2022-09-12T02:10:50.840Z,77.37
2022-09-12T02:13:25.642Z,76.18
2022-09-12T02:15:58.855Z,76.00
2022-09-12T02:18:27.046Z,77.06
2022-09-12T02:20:56.344Z,77.86
2022-09-12T02:23:31.245Z,76.87
2022-09-12T02:26:12.520Z,77.91
2022-09-12T02:28:42.279Z,76.83
2022-09-12T02:31:29.447Z,76.48
2022-09-12T02:34:13.820Z,77.56
2022-09-12T02:36:55.594Z,77.80
2022-09-12T02:39:22.202Z,78.64
2022-09-12T02:41:52.279Z,77.76
2022-09-12T02:44:19.513Z,77.12
2022-09-12T02:46:54.158Z,75.89
2022-09-12T02:49:20.764Z,74.34
2022-09-12T02:51:47.829Z,76.94
2022-09-12T02:54:17.112Z,76.75
2022-09-12T02:56:45.030Z,76.60
2022-09-12T02:59:18.205Z,76.83
2022-09-12T03:01:44.644Z,77.47
2022-09-12T03:04:26.024Z,77.19
2022-09-12T03:07:12.693Z,76.64
2022-09-12T03:09:54.923Z,76.55
2022-09-12T03:12:30.284Z,78.32
2022-09-12T03:15:01.506Z,78.47
2022-09-12T03:17:46.759Z,77.01
2022-09-12T03:20:27.249Z,76.77
2022-09-12T03:22:58.393Z,77.45
2022-09-12T03:25:32.431Z,77.35
2022-09-12T03:28:06.136Z,76.73
2022-09-12T03:30:39.156Z,77.79
2022-09-12T03:33:05.628Z,77.30
2022-09-12T03:35:32.019Z,79.15
2022-09-12T03:37:58.396Z,79.05
2022-09-12T03:40:24.783Z,78.29
2022-09-12T03:42:51.257Z,78.00
2022-09-12T03:45:17.738Z,78.25
2022-09-12T03:47:44.119Z,78.12
2022-09-12T03:50:10.943Z,78.04
2022-09-12T03:52:37.509Z,78.04
2022-09-12T03:55:04.258Z,78.26
2022-09-12T03:57:30.664Z,79.37
2022-09-12T03:59:57.152Z,79.10
2022-09-12T04:02:23.648Z,77.84
2022-09-12T04:04:50.182Z,77.82
2022-09-12T04:07:17.238Z,78.69
2022-09-12T04:09:44.103Z,77.43
2022-09-12T04:12:10.719Z,78.40
2022-09-12T04:14:37.172Z,78.19
2022-09-12T04:17:03.700Z,77.37
2022-09-12T04:19:30.342Z,77.19
2022-09-12T04:21:56.808Z,78.63
2022-09-12T04:24:23.216Z,78.18
2022-09-12T04:26:49.619Z,77.99
2022-09-12T04:29:16.215Z,77.19
2022-09-12T04:31:43.403Z,78.56
2022-09-12T04:34:09.971Z,79.89
2022-09-12T04:36:36.453Z,79.62
2022-09-12T04:39:05.323Z,79.44
2022-09-12T04:41:34.936Z,79.39
2022-09-12T04:44:04.667Z,79.58
2022-09-12T04:46:35.726Z,79.54
2022-09-12T04:49:03.109Z,79.21
2022-09-12T04:51:33.674Z,78.02
2022-09-12T04:54:20.108Z,79.20
2022-09-12T04:56:49.283Z,79.68
2022-09-12T04:59:18.300Z,78.96
2022-09-12T05:01:44.994Z,78.32
2022-09-12T05:04:13.305Z,79.64
2022-09-12T05:06:41.423Z,80.01
2022-09-12T05:09:11.213Z,79.92
2022-09-12T05:12:03.092Z,79.14
2022-09-12T05:14:26.311Z,79.88
2022-09-12T05:16:52.746Z,80.20
2022-09-12T05:19:19.286Z,80.26
2022-09-12T05:21:46.011Z,79.18
2022-09-12T05:24:12.594Z,78.55
2022-09-12T05:26:39.177Z,78.74
2022-09-12T05:29:07.162Z,78.08
2022-09-12T05:31:34.595Z,79.54
2022-09-12T05:34:01.197Z,80.41
2022-09-12T05:36:29.756Z,79.87
2022-09-12T05:38:57.082Z,79.27
2022-09-12T05:41:26.154Z,78.23
2022-09-12T05:43:57.798Z,79.87
2022-09-12T05:46:26.810Z,79.13
2022-09-12T05:48:56.318Z,80.57
2022-09-12T05:51:28.114Z,80.56
2022-09-12T05:53:57.333Z,80.22
2022-09-12T05:56:26.347Z,81.44
2022-09-12T05:58:55.945Z,81.51
2022-09-12T06:01:22.684Z,80.75
2022-09-12T06:03:51.969Z,81.40
2022-09-12T06:06:22.704Z,82.41
2022-09-12T06:08:51.887Z,81.79
2022-09-12T06:11:21.030Z,82.94
2022-09-12T06:13:48.058Z,82.31
2022-09-12T06:16:17.882Z,82.83
2022-09-12T06:18:49.460Z,83.18
2022-09-12T06:21:16.218Z,84.22
2022-09-12T06:23:42.974Z,84.32
2022-09-12T06:26:10.749Z,84.50
2022-09-12T06:28:39.750Z,83.66
2022-09-12T06:31:11.946Z,83.82
2022-09-12T06:33:41.616Z,82.68
2022-09-12T06:36:12.534Z,81.39
2022-09-12T06:38:40.313Z,81.51
2022-09-12T06:41:09.244Z,77.97
2022-09-12T06:43:35.986Z,75.33
2022-09-12T06:46:02.508Z,70.53
2022-09-12T06:48:29.413Z,69.31
2022-09-12T06:51:00.940Z,69.85
2022-09-12T06:53:28.728Z,66.17
2022-09-12T06:56:16.210Z,68.50
2022-09-12T06:58:43.884Z,66.69
2022-09-12T07:01:13.159Z,65.71
2022-09-12T07:03:39.993Z,65.38
2022-09-12T07:06:09.135Z,64.63
2022-09-12T07:08:37.276Z,64.12
2022-09-12T07:11:16.996Z,63.25
2022-09-12T07:13:45.698Z,64.38
2022-09-12T07:16:18.661Z,62.43
2022-09-12T07:18:50.730Z,63.63
2022-09-12T07:21:17.122Z,62.35
2022-09-12T07:23:43.900Z,61.71
2022-09-12T07:26:12.767Z,60.93
2022-09-12T07:28:40.065Z,60.61
2022-09-12T07:31:12.949Z,61.64
2022-09-12T07:33:40.350Z,62.32
2022-09-12T07:36:11.825Z,63.01
2022-09-12T07:38:39.205Z,63.85
2022-09-12T07:41:15.397Z,64.42
2022-09-12T07:43:41.977Z,65.02
2022-09-12T07:46:09.439Z,65.67
2022-09-12T07:48:36.582Z,64.09
2022-09-12T07:51:06.525Z,65.73
2022-09-12T07:53:36.073Z,66.53
2022-09-12T07:56:03.543Z,65.39
2022-09-12T07:58:30.892Z,65.72
2022-09-12T08:01:13.067Z,64.85
2022-09-12T08:03:43.846Z,65.07
2022-09-12T08:06:15.660Z,66.48
2022-09-12T08:08:43.180Z,67.79
2022-09-12T08:11:12.392Z,67.03
2022-09-12T08:13:40.313Z,66.48
2022-09-12T08:16:11.891Z,67.24
2022-09-12T08:18:39.272Z,68.82
2022-09-12T08:21:10.238Z,69.26
2022-09-12T08:23:36.639Z,68.91
2022-09-12T08:26:06.273Z,68.88
2022-09-12T08:28:35.058Z,67.10
2022-09-12T08:31:06.570Z,67.81
2022-09-12T08:33:33.636Z,68.01
2022-09-12T08:36:08.677Z,69.61
2022-09-12T08:38:36.034Z,67.32
2022-09-12T08:41:30.334Z,65.66
2022-09-12T08:44:34.835Z,67.67
2022-09-12T08:47:21.998Z,67.33
2022-09-12T08:50:10.367Z,66.85
2022-09-12T08:53:03.240Z,65.96
2022-09-12T08:55:31.513Z,65.97
2022-09-12T08:58:02.865Z,67.15
2022-09-12T09:00:38.935Z,68.01
2022-09-12T09:03:12.393Z,66.41
2022-09-12T09:06:01.235Z,66.98
2022-09-12T09:08:45.927Z,69.65
2022-09-12T09:11:34.349Z,68.53
2022-09-12T09:14:50.254Z,67.85
2022-09-12T09:17:39.961Z,69.41
2022-09-12T09:20:23.279Z,70.40
2022-09-12T09:22:53.585Z,68.65
2022-09-12T09:25:26.218Z,63.38
2022-09-12T09:28:02.167Z,62.00
2022-09-12T09:30:29.001Z,65.19
2022-09-12T09:33:00.035Z,64.96
2022-09-12T09:35:42.387Z,62.59
2022-09-12T09:38:29.920Z,61.64
2022-09-12T09:41:14.629Z,62.08
2022-09-12T09:43:41.184Z,66.06
2022-09-12T09:46:07.975Z,65.92
2022-09-12T09:48:42.387Z,64.42
2022-09-12T09:51:09.361Z,62.11
2022-09-12T09:53:46.187Z,59.93
2022-09-12T09:56:26.764Z,64.41
2022-09-12T09:58:53.539Z,63.34
2022-09-12T10:01:21.109Z,64.46
2022-09-12T10:03:52.748Z,64.27
2022-09-12T10:06:32.122Z,67.17
2022-09-12T10:09:19.267Z,62.00
2022-09-12T10:11:47.427Z,60.43
2022-09-12T10:14:34.933Z,62.54
2022-09-12T10:17:22.339Z,63.80
2022-09-12T10:20:04.559Z,63.07
2022-09-12T10:22:35.289Z,61.55
2022-09-12T10:25:02.066Z,63.92
2022-09-12T10:27:32.253Z,64.42
2022-09-12T10:30:18.661Z,62.29
2022-09-12T10:32:50.563Z,64.18
2022-09-12T10:35:22.941Z,63.40
2022-09-12T10:37:54.989Z,65.06
2022-09-12T10:40:25.139Z,60.33
2022-09-12T10:42:55.033Z,65.31
2022-09-12T10:45:35.435Z,66.96
2022-09-12T10:48:21.855Z,62.07
2022-09-12T10:50:48.299Z,61.54
2022-09-12T10:53:24.559Z,63.08
2022-09-12T10:56:15.832Z,63.28
2022-09-12T10:59:02.655Z,65.61
2022-09-12T11:01:31.862Z,61.40
2022-09-12T11:04:22.867Z,62.17
2022-09-12T11:07:14.782Z,58.06
2022-09-12T11:10:02.514Z,62.84
2022-09-12T11:12:28.978Z,59.90
2022-09-12T11:15:32.991Z,61.13
2022-09-12T11:18:23.408Z,56.54
2022-09-12T11:21:09.721Z,59.16
2022-09-12T11:23:46.671Z,62.12
2022-09-12T11:26:19.199Z,58.70
2022-09-12T11:28:52.838Z,59.94
2022-09-12T11:31:37.370Z,61.09
2022-09-12T11:34:09.501Z,59.99
2022-09-12T11:36:54.402Z,58.92
2022-09-12T11:39:30.684Z,55.14
2022-09-12T11:42:02.597Z,57.11
2022-09-12T11:44:40.131Z,55.92
2022-09-12T11:47:14.443Z,56.01
2022-09-12T11:49:47.259Z,55.81
2022-09-12T11:52:16.940Z,59.62
2022-09-12T11:54:53.696Z,55.64
2022-09-12T11:57:20.583Z,56.53
2022-09-12T11:59:59.016Z,56.70
2022-09-12T12:02:39.086Z,52.74
2022-09-12T12:05:15.416Z,51.67
2022-09-12T12:07:48.667Z,51.40
2022-09-12T12:10:30.016Z,49.66
2022-09-12T12:12:58.029Z,51.01
2022-09-12T12:15:26.586Z,52.21
2022-09-12T12:18:08.376Z,53.41
2022-09-12T12:20:35.761Z,56.50
2022-09-12T12:23:02.328Z,58.92
2022-09-12T12:25:52.777Z,58.63
2022-09-12T12:28:41.047Z,58.90
2022-09-12T12:31:11.332Z,55.88
2022-09-12T12:33:37.744Z,57.26
2022-09-12T12:36:08.130Z,55.26
2022-09-12T12:38:36.425Z,57.12
2022-09-12T12:41:18.190Z,58.10
2022-09-12T12:43:45.739Z,59.79
2022-09-12T12:46:15.896Z,56.36
2022-09-12T12:49:04.187Z,57.61
2022-09-12T12:51:35.656Z,58.03
2022-09-12T12:54:08.703Z,55.05
2022-09-12T12:56:41.979Z,54.68
2022-09-12T12:59:23.557Z,59.84
2022-09-12T13:01:55.445Z,60.64
2022-09-12T13:04:25.663Z,59.62
2022-09-12T13:07:07.660Z,61.34
2022-09-12T13:09:39.654Z,58.96
2022-09-12T13:12:17.627Z,59.69
2022-09-12T13:14:46.887Z,61.81
2022-09-12T13:17:37.482Z,61.62
2022-09-12T13:20:26.619Z,59.06
2022-09-12T13:22:54.182Z,60.71
2022-09-12T13:25:25.508Z,57.75
2022-09-12T13:28:15.772Z,58.91
2022-09-12T13:31:06.874Z,55.29
2022-09-12T13:33:39.234Z,60.44
2022-09-12T13:36:12.620Z,59.02
2022-09-12T13:38:51.047Z,58.43
2022-09-12T13:41:32.881Z,56.15
2022-09-12T13:44:00.718Z,57.76
2022-09-12T13:46:31.189Z,56.46
2022-09-12T13:48:59.785Z,58.23
2022-09-12T13:51:28.932Z,55.80
2022-09-12T13:54:00.125Z,56.55
2022-09-12T13:56:26.960Z,58.21
2022-09-12T13:58:57.446Z,57.44
2022-09-12T14:01:36.532Z,57.47
2022-09-12T14:04:34.099Z,60.12
2022-09-12T14:07:04.081Z,61.49
2022-09-12T14:09:39.490Z,61.99
2022-09-12T14:12:18.209Z,61.32
2022-09-12T14:14:49.939Z,60.47
2022-09-12T14:17:38.725Z,59.55
2022-09-12T14:20:14.029Z,62.71
2022-09-12T14:22:41.523Z,61.70
2022-09-12T14:25:16.078Z,61.11
2022-09-12T14:27:50.708Z,58.65
2022-09-12T14:30:23.003Z,61.96
2022-09-12T14:33:11.396Z,57.93
2022-09-12T14:35:43.798Z,61.35
2022-09-12T14:38:16.081Z,59.78
2022-09-12T14:40:46.255Z,57.47
2022-09-12T14:43:25.077Z,58.41
2022-09-12T14:45:59.635Z,60.28
2022-09-12T14:48:30.264Z,58.02
2022-09-12T14:50:56.747Z,64.05
2022-09-12T14:53:30.796Z,61.81
2022-09-12T14:56:05.402Z,59.67
2022-09-12T14:58:31.943Z,59.03
2022-09-12T15:01:03.738Z,57.88
2022-09-12T15:03:38.036Z,57.41
2022-09-12T15:06:07.911Z,57.33
2022-09-12T15:08:34.416Z,52.02
2022-09-12T15:11:00.963Z,53.50
2022-09-12T15:13:30.200Z,56.48
2022-09-12T15:15:58.987Z,58.39
2022-09-12T15:18:28.691Z,58.99
2022-09-12T15:20:57.741Z,54.68
2022-09-12T15:23:49.972Z,59.16
2022-09-12T15:26:22.534Z,60.70
2022-09-12T15:28:50.192Z,60.60
2022-09-12T15:31:26.259Z,60.84
2022-09-12T15:33:53.924Z,58.50
2022-09-12T15:36:22.830Z,53.70
2022-09-12T15:38:50.162Z,53.95
2022-09-12T15:41:19.523Z,54.55
2022-09-12T15:43:47.481Z,56.41
2022-09-12T15:46:15.924Z,58.21
2022-09-12T15:48:43.408Z,52.29
2022-09-12T15:51:20.869Z,55.90
2022-09-12T15:53:49.168Z,59.51
2022-09-12T15:56:17.728Z,59.34
2022-09-12T15:58:57.636Z,60.90
2022-09-12T16:01:25.913Z,62.19
2022-09-12T16:03:52.442Z,62.74
2022-09-12T16:06:18.825Z,63.25
2022-09-12T16:08:45.437Z,62.59
2022-09-12T16:11:32.977Z,63.64
2022-09-12T16:14:00.009Z,62.34
2022-09-12T16:16:26.560Z,64.56
2022-09-12T16:18:53.065Z,63.39
2022-09-12T16:21:19.590Z,65.14
2022-09-12T16:23:47.320Z,67.15
2022-09-12T16:26:14.165Z,66.72
2022-09-12T16:28:40.945Z,68.97
2022-09-12T16:31:10.198Z,68.60
2022-09-12T16:33:38.049Z,70.15
2022-09-12T16:36:07.727Z,70.58
2022-09-12T16:38:35.802Z,72.33
2022-09-12T16:41:05.194Z,73.38
2022-09-12T16:43:33.043Z,73.32
2022-09-12T16:46:09.623Z,73.59
2022-09-12T16:48:36.385Z,73.63
2022-09-12T16:51:06.840Z,74.07
2022-09-12T16:53:35.473Z,75.39
2022-09-12T16:56:02.135Z,74.65
2022-09-12T16:58:32.742Z,77.20
2022-09-12T17:01:00.874Z,76.31
2022-09-12T17:03:27.663Z,75.73
2022-09-12T17:06:01.836Z,76.19
2022-09-12T17:08:29.058Z,76.02
2022-09-12T17:11:02.645Z,76.60
2022-09-12T17:13:46.908Z,76.29
2022-09-12T17:16:17.148Z,74.52
2022-09-12T17:18:43.735Z,75.03
2022-09-12T17:21:11.891Z,74.23
2022-09-12T17:23:39.500Z,74.15
2022-09-12T17:26:07.446Z,73.56
2022-09-12T17:28:34.162Z,71.09
2022-09-12T17:31:03.520Z,70.55
2022-09-12T17:33:30.611Z,70.30
2022-09-12T17:36:04.882Z,70.34
2022-09-12T17:38:32.419Z,70.75
2022-09-12T17:41:08.393Z,70.54
2022-09-12T17:43:40.873Z,70.12
2022-09-12T17:46:08.208Z,70.27
2022-09-12T17:48:35.847Z,70.31
2022-09-12T17:51:14.268Z,70.92
2022-09-12T17:53:41.797Z,70.61
2022-09-12T17:56:09.352Z,70.30
2022-09-12T17:58:36.759Z,70.86
2022-09-12T18:01:29.394Z,69.79
2022-09-12T18:03:57.530Z,71.13
2022-09-12T18:06:24.342Z,73.31
2022-09-12T18:08:51.488Z,73.57
2022-09-12T18:11:18.069Z,73.81
2022-09-12T18:13:44.635Z,74.42
2022-09-12T18:16:12.650Z,74.67
2022-09-12T18:18:39.310Z,74.77
2022-09-12T18:21:06.899Z,75.27
2022-09-12T18:23:33.963Z,75.33
2022-09-12T18:26:05.639Z,76.93
2022-09-12T18:28:33.177Z,76.43
2022-09-12T18:30:59.714Z,77.55
2022-09-12T18:33:26.190Z,77.45
2022-09-12T18:35:52.597Z,76.99
2022-09-12T18:38:19.096Z,76.96
2022-09-12T18:40:45.587Z,76.83
2022-09-12T18:43:12.002Z,77.47
2022-09-12T18:45:38.383Z,77.54
2022-09-12T18:48:06.072Z,77.70
2022-09-12T18:50:33.075Z,77.22
2022-09-12T18:53:00.020Z,77.48
2022-09-12T18:55:26.663Z,77.41
2022-09-12T18:57:54.847Z,77.56
2022-09-12T19:00:21.493Z,77.81
2022-09-12T19:02:48.000Z,78.83
2022-09-12T19:05:14.535Z,78.81
2022-09-12T19:07:41.168Z,78.02
2022-09-12T19:10:08.837Z,78.06
2022-09-12T19:12:35.428Z,78.46
2022-09-12T19:15:01.976Z,78.57
2022-09-12T19:17:28.434Z,78.74
2022-09-12T19:19:55.418Z,78.75
2022-09-12T19:22:22.187Z,78.75
2022-09-12T19:24:48.615Z,80.46
2022-09-12T19:27:16.034Z,81.51
2022-09-12T19:29:42.627Z,80.23
2022-09-12T19:32:09.082Z,79.34
2022-09-12T19:34:35.548Z,79.91
2022-09-12T19:37:01.945Z,80.36
2022-09-12T19:39:28.380Z,80.15
2022-09-12T19:41:54.757Z,79.98
2022-09-12T19:44:21.250Z,80.59
2022-09-12T19:46:47.963Z,80.45
2022-09-12T19:49:14.471Z,79.75
2022-09-12T19:51:41.309Z,79.94
2022-09-12T19:54:08.051Z,79.08
2022-09-12T19:56:34.629Z,80.14
2022-09-12T19:59:01.022Z,80.26
2022-09-12T20:01:28.614Z,79.65
2022-09-12T20:03:58.754Z,80.25
2022-09-12T20:06:26.205Z,80.32
2022-09-12T20:08:52.820Z,80.37
2022-09-12T20:11:20.889Z,80.54
2022-09-12T20:13:47.528Z,81.42
2022-09-12T20:16:25.437Z,81.99
2022-09-12T20:18:54.441Z,82.55
2022-09-12T20:21:25.370Z,82.41
2022-09-12T20:23:52.069Z,81.58
2022-09-12T20:26:20.086Z,81.96
2022-09-12T20:28:46.500Z,81.51
2022-09-12T20:31:15.360Z,81.03
2022-09-12T20:33:42.157Z,80.88
2022-09-12T20:36:14.438Z,82.07
2022-09-12T20:38:42.275Z,83.23
2022-09-12T20:41:09.965Z,83.16
2022-09-12T20:43:38.539Z,82.20
2022-09-12T20:46:07.017Z,82.10
2022-09-12T20:48:33.425Z,81.78
2022-09-12T20:50:59.825Z,82.50
2022-09-12T20:53:28.785Z,82.69
2022-09-12T20:55:57.035Z,83.28
2022-09-12T20:58:23.521Z,82.46
2022-09-12T21:00:50.507Z,82.41
2022-09-12T21:03:17.445Z,82.51
2022-09-12T21:05:45.007Z,82.14
2022-09-12T21:08:12.247Z,84.00
2022-09-12T21:10:42.160Z,83.01
2022-09-12T21:13:13.438Z,83.32
2022-09-12T21:15:41.296Z,84.10
2022-09-12T21:18:08.100Z,85.32
2022-09-12T21:20:34.692Z,82.95
2022-09-12T21:23:01.200Z,83.92
2022-09-12T21:25:29.016Z,83.05
2022-09-12T21:27:55.642Z,83.03
2022-09-12T21:30:22.347Z,82.48
2022-09-12T21:32:48.839Z,82.68
2022-09-12T21:35:15.406Z,83.40
2022-09-12T21:37:41.834Z,82.90
2022-09-12T21:40:08.598Z,84.26
2022-09-12T21:42:35.059Z,83.25
2022-09-12T21:45:01.698Z,82.61
2022-09-12T21:47:28.109Z,82.93
2022-09-12T21:49:55.287Z,83.63
2022-09-12T21:52:22.041Z,83.25
2022-09-12T21:54:48.467Z,83.09
2022-09-12T21:57:15.603Z,84.12
2022-09-12T21:59:42.115Z,83.43
2022-09-12T22:02:09.460Z,84.38
2022-09-12T22:04:35.874Z,84.79
2022-09-12T22:07:02.369Z,85.15
2022-09-12T22:09:28.798Z,85.32
2022-09-12T22:11:55.596Z,84.99
2022-09-12T22:14:22.062Z,83.90
2022-09-12T22:16:49.428Z,83.79
2022-09-12T22:19:16.278Z,83.74
2022-09-12T22:22:02.720Z,84.63
2022-09-12T22:24:29.685Z,84.94
2022-09-12T22:26:58.951Z,85.01
2022-09-12T22:29:26.375Z,84.85
2022-09-12T22:31:53.571Z,83.68
2022-09-12T22:34:20.088Z,85.48
2022-09-12T22:36:48.319Z,84.35
2022-09-12T22:39:14.747Z,84.05
2022-09-12T22:41:41.170Z,84.53
2022-09-12T22:44:07.599Z,85.05
2022-09-12T22:46:34.015Z,84.24
2022-09-12T22:49:00.439Z,84.58
2022-09-12T22:51:26.928Z,85.13
2022-09-12T22:53:53.796Z,85.53
2022-09-12T22:56:20.253Z,84.93
2022-09-12T22:58:46.718Z,85.43
2022-09-12T23:01:13.249Z,84.10
2022-09-12T23:03:40.139Z,84.28
2022-09-12T23:06:07.757Z,85.54
2022-09-12T23:08:36.347Z,85.32
2022-09-12T23:11:06.053Z,86.95
2022-09-12T23:13:33.052Z,86.62
2022-09-12T23:16:01.011Z,86.36
2022-09-12T23:18:28.133Z,87.03
2022-09-12T23:21:05.919Z,85.98
2022-09-12T23:23:32.971Z,86.93
2022-09-12T23:26:10.838Z,87.48
2022-09-12T23:28:37.609Z,86.21
2022-09-12T23:31:04.462Z,85.48
2022-09-12T23:33:32.318Z,87.28
2022-09-12T23:36:12.606Z,87.95
2022-09-12T23:38:39.072Z,86.83
2022-09-12T23:41:05.697Z,86.29
2022-09-12T23:43:32.190Z,86.68
2022-09-12T23:45:58.996Z,87.18
2022-09-12T23:48:26.338Z,86.74
2022-09-12T23:50:52.966Z,87.28
2022-09-12T23:53:19.958Z,86.65
2022-09-12T23:55:47.155Z,87.23
2022-09-12T23:58:14.056Z,87.55
